Time;durP1;ratioP1;P1;durP2;ratioP2;P2;SDS_P1;SDS_P2;PMS_P1;PMS_P2;Temp;Humidity;BMP_temperature;BMP_pressure;BME280_temperature;BME280_humidity;BME280_pressure;Samples;Min_cycle;Max_cycle;Signal;HPM_P1;HPM_P2
2021/04/24 00:01:36;;;;;;;3.15;1.50;;;25.50;35.10;;;;;;5073516;28;20466;-57
2021/04/24 00:04:02;;;;;;;2.70;1.42;;;25.50;35.00;;;;;;5081502;28;20032;-52
2021/04/24 00:06:29;;;;;;;3.53;1.40;;;25.50;35.00;;;;;;5082631;28;20358;-53
2021/04/24 00:08:56;;;;;;;3.75;1.35;;;25.50;35.00;;;;;;5083307;28;20207;-55
2021/04/24 00:11:23;;;;;;;2.88;1.30;;;25.50;35.10;;;;;;5083371;28;20144;-54
2021/04/24 00:13:49;;;;;;;2.60;1.40;;;25.50;35.00;;;;;;5083733;28;20138;-57
2021/04/24 00:16:16;;;;;;;2.10;1.25;;;25.50;35.10;;;;;;5082737;28;20388;-56
2021/04/24 00:18:42;;;;;;;2.22;1.20;;;25.50;35.00;;;;;;5082368;28;20041;-56
2021/04/24 00:21:07;;;;;;;3.22;1.40;;;25.50;35.00;;;;;;5084884;28;20070;-56
2021/04/24 00:23:33;;;;;;;2.70;1.23;;;25.50;35.00;;;;;;5082777;28;20028;-56
2021/04/24 00:25:59;;;;;;;2.35;1.20;;;25.50;35.00;;;;;;5082890;28;20032;-56
2021/04/24 00:28:25;;;;;;;2.72;1.25;;;25.50;35.00;;;;;;5071819;28;20028;-56
2021/04/24 00:30:50;;;;;;;2.47;1.20;;;25.50;35.00;;;;;;5085532;28;20043;-55
2021/04/24 00:33:16;;;;;;;2.00;1.17;;;25.50;35.00;;;;;;5081539;28;20028;-59
2021/04/24 00:35:42;;;;;;;2.65;1.30;;;25.50;35.00;;;;;;5082882;28;20070;-55
2021/04/24 00:38:09;;;;;;;2.38;1.20;;;25.50;35.00;;;;;;5081442;28;20032;-57
2021/04/24 00:40:35;;;;;;;1.83;1.02;;;25.50;35.00;;;;;;5077718;28;20028;-58
2021/04/24 00:43:01;;;;;;;2.58;1.25;;;25.50;35.00;;;;;;5082072;28;20362;-56
2021/04/24 00:45:27;;;;;;;2.60;1.55;;;25.40;34.90;;;;;;5080616;28;20477;-53
2021/04/24 00:47:55;;;;;;;2.35;1.30;;;25.40;34.90;;;;;;5081608;28;20026;-55
2021/04/24 00:50:32;;;;;;;2.63;1.10;;;25.40;34.90;;;;;;5082707;28;20048;-58
2021/04/24 00:52:59;;;;;;;3.03;1.20;;;25.50;35.00;;;;;;5083333;28;20039;-54
2021/04/24 00:55:25;;;;;;;2.13;1.20;;;25.40;34.90;;;;;;5081938;28;20074;-55
2021/04/24 00:57:51;;;;;;;2.53;1.50;;;25.40;34.90;;;;;;5082938;28;20056;-54
2021/04/24 01:00:18;;;;;;;1.80;1.10;;;25.40;35.00;;;;;;5082434;28;20028;-54
2021/04/24 01:02:43;;;;;;;2.38;1.10;;;25.40;35.00;;;;;;5080317;28;20470;-54
2021/04/24 01:05:12;;;;;;;2.22;1.20;;;25.40;35.00;;;;;;5076494;28;20032;-56
2021/04/24 01:07:38;;;;;;;1.95;1.20;;;25.30;34.90;;;;;;5078374;28;20028;-56
2021/04/24 01:10:06;;;;;;;2.45;1.00;;;25.30;34.90;;;;;;5082369;28;20028;-55
2021/04/24 01:12:31;;;;;;;2.17;1.13;;;25.30;34.90;;;;;;5082034;28;20032;-55
2021/04/24 01:14:57;;;;;;;2.70;1.30;;;25.30;34.90;;;;;;5082746;28;20503;-54
2021/04/24 01:17:23;;;;;;;2.50;1.20;;;25.20;34.80;;;;;;5077730;28;20031;-55
2021/04/24 01:19:48;;;;;;;2.47;1.10;;;25.20;34.90;;;;;;5082512;28;20257;-52
2021/04/24 01:22:14;;;;;;;2.10;1.10;;;25.20;35.50;;;;;;5082719;28;20042;-55
2021/04/24 01:24:40;;;;;;;1.95;1.20;;;25.20;35.00;;;;;;5081740;28;20486;-55
2021/04/24 01:27:06;;;;;;;1.98;1.10;;;25.20;35.00;;;;;;5062432;28;20331;-55
2021/04/24 01:29:33;;;;;;;1.73;0.95;;;25.10;34.90;;;;;;5071632;28;20421;-56
2021/04/24 01:32:01;;;;;;;1.70;1.08;;;25.10;34.90;;;;;;5081357;28;20131;-51
2021/04/24 01:34:28;;;;;;;1.80;1.05;;;25.10;34.90;;;;;;5081093;28;20031;-54
2021/04/24 01:36:58;;;;;;;1.92;0.90;;;25.10;34.90;;;;;;5062217;28;20089;-52
2021/04/24 01:39:24;;;;;;;2.13;1.13;;;25.10;35.50;;;;;;5072611;28;20522;-56
2021/04/24 01:41:51;;;;;;;1.88;1.10;;;25.10;35.00;;;;;;5081627;28;20119;-56
2021/04/24 01:44:17;;;;;;;2.17;1.17;;;25.10;35.00;;;;;;5079699;28;20028;-57
2021/04/24 01:46:42;;;;;;;2.03;1.20;;;25.10;35.00;;;;;;5080776;28;20028;-54
2021/04/24 01:49:08;;;;;;;2.15;1.00;;;25.10;35.00;;;;;;5081448;28;20320;-54
2021/04/24 01:51:34;;;;;;;2.38;1.20;;;25.00;34.90;;;;;;5082359;28;20039;-54
2021/04/24 01:54:00;;;;;;;1.48;1.10;;;25.00;35.00;;;;;;5080035;28;20036;-52
2021/04/24 01:56:26;;;;;;;1.67;1.08;;;25.00;35.00;;;;;;5080680;28;20039;-54
2021/04/24 01:58:52;;;;;;;1.63;1.05;;;25.00;35.00;;;;;;5082572;28;20048;-57
2021/04/24 02:01:19;;;;;;;1.92;1.10;;;25.00;35.50;;;;;;5079013;28;20463;-52
2021/04/24 02:03:48;;;;;;;2.58;1.30;;;24.90;35.00;;;;;;5079414;28;20024;-56
2021/04/24 02:06:14;;;;;;;2.88;1.40;;;24.90;35.00;;;;;;5080814;28;20024;-52
2021/04/24 02:08:42;;;;;;;1.73;1.20;;;24.90;35.00;;;;;;5081310;28;20051;-53
2021/04/24 02:11:09;;;;;;;2.17;1.20;;;24.90;35.00;;;;;;5070601;28;20647;-53
2021/04/24 02:13:41;;;;;;;2.38;1.20;;;24.90;35.10;;;;;;5067404;28;20028;-53
2021/04/24 02:16:08;;;;;;;1.95;1.20;;;24.80;35.00;;;;;;5066451;28;20032;-54
2021/04/24 02:18:33;;;;;;;1.98;1.02;;;24.80;35.00;;;;;;5081357;28;20398;-53
2021/04/24 02:20:59;;;;;;;2.10;1.25;;;24.80;35.00;;;;;;5082560;28;20032;-53
2021/04/24 02:23:25;;;;;;;2.22;1.20;;;24.80;35.00;;;;;;5081131;28;20562;-56
2021/04/24 02:25:51;;;;;;;1.80;1.10;;;24.80;35.00;;;;;;5080368;28;20184;-54
2021/04/24 02:28:17;;;;;;;1.55;0.98;;;24.80;35.10;;;;;;5082845;28;20040;-52
2021/04/24 02:30:44;;;;;;;2.33;1.13;;;24.80;35.10;;;;;;5086850;28;20077;-53
2021/04/24 02:33:11;;;;;;;1.88;1.00;;;24.80;35.20;;;;;;5081125;28;20040;-55
2021/04/24 02:35:39;;;;;;;1.38;0.90;;;24.70;35.10;;;;;;5081067;28;20339;-52
2021/04/24 02:38:06;;;;;;;1.83;1.08;;;24.70;35.10;;;;;;5079173;28;20107;-55
2021/04/24 02:40:31;;;;;;;2.28;1.17;;;24.70;35.10;;;;;;5081795;28;20543;-55
2021/04/24 02:42:57;;;;;;;2.47;1.40;;;24.70;35.10;;;;;;5081133;28;20043;-54
2021/04/24 02:45:23;;;;;;;2.20;1.00;;;24.70;35.10;;;;;;5081628;28;20040;-53
2021/04/24 02:47:49;;;;;;;2.38;1.30;;;24.60;35.10;;;;;;5079550;28;20451;-53
2021/04/24 02:50:17;;;;;;;2.08;1.05;;;24.70;35.10;;;;;;5082645;28;20059;-53
2021/04/24 02:52:44;;;;;;;2.17;1.20;;;24.70;35.10;;;;;;5079241;28;20029;-54
2021/04/24 02:55:11;;;;;;;1.73;1.00;;;24.60;35.10;;;;;;5072177;28;20101;-55
2021/04/24 02:57:36;;;;;;;1.67;0.90;;;24.60;35.10;;;;;;5079507;28;20070;-55
2021/04/24 03:00:05;;;;;;;1.48;1.00;;;24.60;35.10;;;;;;5084824;28;20039;-55
2021/04/24 03:02:31;;;;;;;1.40;1.00;;;24.60;35.10;;;;;;5076272;28;20093;-53
2021/04/24 03:04:56;;;;;;;2.00;1.02;;;24.60;35.10;;;;;;5075025;28;20370;-55
2021/04/24 03:07:22;;;;;;;2.65;1.15;;;24.60;35.10;;;;;;5080836;28;20024;-55
2021/04/24 03:09:48;;;;;;;2.42;1.00;;;24.60;35.20;;;;;;5084379;28;20032;-54
2021/04/24 03:12:13;;;;;;;2.35;1.10;;;24.60;35.20;;;;;;5084890;28;20055;-53
2021/04/24 03:14:39;;;;;;;1.92;1.05;;;24.50;35.20;;;;;;5082269;28;20103;-54
2021/04/24 03:17:05;;;;;;;2.17;1.10;;;24.50;35.10;;;;;;5082516;28;20123;-56
2021/04/24 03:19:30;;;;;;;2.00;0.98;;;24.50;35.70;;;;;;5084122;28;20466;-55
2021/04/24 03:21:56;;;;;;;1.05;0.88;;;24.50;35.10;;;;;;5085097;28;20554;-53
2021/04/24 03:24:21;;;;;;;2.05;0.98;;;24.50;35.20;;;;;;5083273;28;20039;-56
2021/04/24 03:26:47;;;;;;;1.50;1.00;;;24.50;35.20;;;;;;5083410;28;20028;-55
2021/04/24 03:29:13;;;;;;;1.73;1.00;;;24.50;35.20;;;;;;5091551;28;20015;-52
2021/04/24 03:31:38;;;;;;;1.70;0.95;;;24.50;35.20;;;;;;5090821;28;20105;-53
2021/04/24 03:34:04;;;;;;;1.75;1.00;;;24.50;35.20;;;;;;5083911;28;20044;-57
2021/04/24 03:36:30;;;;;;;2.03;1.08;;;24.40;35.20;;;;;;5083065;28;20040;-55
2021/04/24 03:38:56;;;;;;;1.92;1.02;;;24.40;35.20;;;;;;5083387;28;20138;-53
2021/04/24 03:41:22;;;;;;;2.03;1.00;;;24.40;35.20;;;;;;5083953;28;20028;-51
2021/04/24 03:43:48;;;;;;;1.65;0.93;;;24.40;35.20;;;;;;5080686;28;20395;-54
2021/04/24 03:46:13;;;;;;;1.67;1.00;;;24.40;35.20;;;;;;5071182;28;20497;-54
2021/04/24 03:48:39;;;;;;;2.10;1.10;;;24.30;35.10;;;;;;5082231;28;20407;-55
2021/04/24 03:51:05;;;;;;;1.52;1.00;;;24.30;35.10;;;;;;5086280;28;20028;-54
2021/04/24 03:53:30;;;;;;;2.13;1.10;;;24.30;35.10;;;;;;5082934;28;20097;-56
2021/04/24 03:55:56;;;;;;;1.60;1.00;;;24.30;35.10;;;;;;5082721;28;20354;-56
2021/04/24 03:58:22;;;;;;;2.25;1.05;;;24.30;35.10;;;;;;5081059;28;20033;-54
2021/04/24 04:00:48;;;;;;;1.67;1.00;;;24.30;35.10;;;;;;5080278;28;20039;-55
2021/04/24 04:03:13;;;;;;;1.40;0.98;;;24.30;35.10;;;;;;5083190;28;20175;-56
2021/04/24 04:05:41;;;;;;;1.23;1.00;;;24.30;35.10;;;;;;5085653;28;20893;-56
2021/04/24 04:08:09;;;;;;;1.50;0.90;;;24.30;35.20;;;;;;5084116;28;20032;-57
2021/04/24 04:10:35;;;;;;;2.80;1.45;;;24.30;35.10;;;;;;5084523;28;20028;-55
2021/04/24 04:13:02;;;;;;;2.10;1.20;;;24.30;35.20;;;;;;5083406;28;20036;-56
2021/04/24 04:15:28;;;;;;;1.65;1.00;;;24.30;35.20;;;;;;5083866;28;20034;-58
2021/04/24 04:18:10;;;;;;;1.60;1.05;;;24.20;35.10;;;;;;5081329;28;20030;-54
2021/04/24 04:20:46;;;;;;;1.73;0.90;;;24.20;35.10;;;;;;5083940;28;20067;-56
2021/04/24 04:23:12;;;;;;;1.88;1.05;;;24.20;35.10;;;;;;5084160;28;20062;-55
2021/04/24 04:25:39;;;;;;;1.77;1.00;;;24.20;35.20;;;;;;5062951;28;20310;-56
2021/04/24 04:28:05;;;;;;;2.28;1.20;;;24.20;35.20;;;;;;5076921;28;20032;-51
2021/04/24 04:30:31;;;;;;;1.55;1.00;;;24.20;35.20;;;;;;5100885;28;20031;-52
2021/04/24 04:32:58;;;;;;;1.88;1.08;;;24.20;35.20;;;;;;5090368;28;20376;-56
2021/04/24 04:35:25;;;;;;;1.83;1.10;;;24.20;35.20;;;;;;5083227;28;20550;-54
2021/04/24 04:37:53;;;;;;;1.95;1.10;;;24.10;35.10;;;;;;5082341;28;20360;-52
2021/04/24 04:40:19;;;;;;;1.77;1.00;;;24.20;35.20;;;;;;5081997;28;20032;-55
2021/04/24 04:42:46;;;;;;;1.80;1.10;;;24.10;35.20;;;;;;5073086;28;20040;-55
2021/04/24 04:45:14;;;;;;;2.05;1.10;;;24.10;35.20;;;;;;5082637;28;20534;-51
2021/04/24 04:47:40;;;;;;;1.45;0.95;;;24.10;35.20;;;;;;5079425;28;20366;-52
2021/04/24 04:50:08;;;;;;;1.52;1.10;;;24.10;35.20;;;;;;5079315;28;20028;-53
2021/04/24 04:52:34;;;;;;;1.45;0.90;;;24.10;35.20;;;;;;5081598;28;20214;-54
2021/04/24 04:55:00;;;;;;;1.60;0.82;;;24.10;35.50;;;;;;5082929;28;20459;-55
2021/04/24 04:57:26;;;;;;;1.90;1.08;;;24.10;35.20;;;;;;5081423;28;20089;-54
2021/04/24 04:59:51;;;;;;;1.95;1.10;;;24.00;35.20;;;;;;5084097;28;20188;-54
2021/04/24 05:02:17;;;;;;;1.80;1.00;;;24.00;35.20;;;;;;5072252;28;20044;-54
2021/04/24 05:04:44;;;;;;;1.80;1.20;;;24.00;35.20;;;;;;5081113;28;20087;-54
2021/04/24 05:07:10;;;;;;;1.35;0.88;;;24.00;35.30;;;;;;5079277;28;20038;-54
2021/04/24 05:09:36;;;;;;;1.90;1.17;;;24.00;35.20;;;;;;5081219;28;20311;-55
2021/04/24 05:12:01;;;;;;;1.67;1.20;;;24.00;35.20;;;;;;5082848;28;20051;-53
2021/04/24 05:14:27;;;;;;;2.05;1.00;;;24.00;35.20;;;;;;5082659;28;20498;-55
2021/04/24 05:16:52;;;;;;;1.40;0.90;;;24.00;35.20;;;;;;5079970;28;20093;-55
2021/04/24 05:19:18;;;;;;;1.48;0.82;;;24.00;35.20;;;;;;5081956;28;20036;-53
2021/04/24 05:21:44;;;;;;;1.83;1.00;;;24.00;35.20;;;;;;5070355;28;20532;-53
2021/04/24 05:24:10;;;;;;;2.25;1.17;;;23.90;35.10;;;;;;5073349;28;20032;-53
2021/04/24 05:26:36;;;;;;;1.77;0.98;;;23.90;35.10;;;;;;5081709;28;20055;-52
2021/04/24 05:29:02;;;;;;;2.50;0.98;;;23.90;35.10;;;;;;5087272;28;20438;-54
2021/04/24 05:31:28;;;;;;;1.70;0.90;;;23.90;35.10;;;;;;5070699;28;20040;-54
2021/04/24 05:33:54;;;;;;;2.15;1.10;;;23.90;35.20;;;;;;5081134;28;20055;-53
2021/04/24 05:36:20;;;;;;;2.38;1.20;;;23.90;35.20;;;;;;5081601;28;20035;-55
2021/04/24 05:38:49;;;;;;;1.73;0.90;;;23.90;35.20;;;;;;5081773;28;20423;-53
2021/04/24 05:41:20;;;;;;;1.92;1.10;;;23.90;35.20;;;;;;5080938;28;20450;-52
2021/04/24 05:43:46;;;;;;;1.50;0.90;;;23.90;35.20;;;;;;5081923;28;20055;-55
2021/04/24 05:46:11;;;;;;;1.80;0.95;;;23.90;35.20;;;;;;5081626;28;20040;-54
2021/04/24 05:48:37;;;;;;;1.83;1.02;;;23.90;35.00;;;;;;5081025;28;20024;-52
2021/04/24 05:51:03;;;;;;;1.88;0.80;;;23.90;35.00;;;;;;5082514;28;20842;-51
2021/04/24 05:53:28;;;;;;;2.17;1.17;;;23.90;35.00;;;;;;5079967;28;20028;-53
2021/04/24 05:55:54;;;;;;;2.80;1.05;;;23.90;35.00;;;;;;5080321;28;20028;-57
2021/04/24 05:58:19;;;;;;;2.75;1.10;;;23.90;35.00;;;;;;5079365;28;20137;-55
2021/04/24 06:00:45;;;;;;;1.83;1.10;;;23.90;35.00;;;;;;5077894;28;20306;-53
2021/04/24 06:03:11;;;;;;;1.67;0.90;;;23.90;35.00;;;;;;5079656;28;20036;-55
2021/04/24 06:05:37;;;;;;;1.73;1.00;;;23.90;35.00;;;;;;5081483;28;20047;-51
2021/04/24 06:08:03;;;;;;;1.52;0.93;;;23.90;35.10;;;;;;5065345;28;20032;-54
2021/04/24 06:10:29;;;;;;;1.83;1.00;;;23.90;35.00;;;;;;5081788;28;20024;-53
2021/04/24 06:12:54;;;;;;;1.77;0.90;;;23.90;35.00;;;;;;5081401;28;20062;-55
2021/04/24 06:15:20;;;;;;;2.22;1.13;;;23.90;35.10;;;;;;5080707;28;20442;-52
2021/04/24 06:17:46;;;;;;;1.27;0.85;;;23.90;35.10;;;;;;5074946;28;20526;-56
2021/04/24 06:20:13;;;;;;;3.00;1.10;;;23.90;35.10;;;;;;5082958;28;20035;-52
2021/04/24 06:22:39;;;;;;;2.90;1.00;;;23.80;35.20;;;;;;5081698;28;20107;-54
2021/04/24 06:25:07;;;;;;;1.92;1.00;;;23.80;35.30;;;;;;5082013;28;20115;-51
2021/04/24 06:27:33;;;;;;;1.45;0.93;;;23.80;35.30;;;;;;5083908;28;20025;-57
2021/04/24 06:29:58;;;;;;;2.35;1.10;;;23.80;35.40;;;;;;5073885;28;20024;-54
2021/04/24 06:32:24;;;;;;;2.33;0.90;;;23.80;35.40;;;;;;5084394;28;20078;-55
2021/04/24 06:34:50;;;;;;;1.85;1.00;;;23.80;35.40;;;;;;5084024;28;20042;-52
2021/04/24 06:37:17;;;;;;;3.55;0.98;;;23.80;35.40;;;;;;5084629;28;20035;-54
2021/04/24 06:39:42;;;;;;;2.42;0.82;;;23.80;35.40;;;;;;5083663;28;20323;-53
2021/04/24 06:42:08;;;;;;;2.30;1.10;;;23.80;35.40;;;;;;5083574;28;20043;-52
2021/04/24 06:44:33;;;;;;;2.22;0.95;;;23.80;35.40;;;;;;5085713;28;20467;-56
2021/04/24 06:46:59;;;;;;;2.22;0.88;;;23.80;35.50;;;;;;5082828;28;20024;-49
2021/04/24 06:49:25;;;;;;;2.58;0.90;;;23.80;35.50;;;;;;5083640;28;20020;-51
2021/04/24 06:51:50;;;;;;;1.92;0.95;;;23.80;35.60;;;;;;5075976;28;20494;-56
2021/04/24 06:54:17;;;;;;;4.10;0.90;;;23.80;35.50;;;;;;5084411;28;20109;-56
2021/04/24 06:56:42;;;;;;;1.77;0.90;;;23.80;35.50;;;;;;5084476;28;20545;-53
2021/04/24 06:59:08;;;;;;;2.85;0.90;;;23.80;35.50;;;;;;5080127;28;20115;-56
2021/04/24 07:01:34;;;;;;;1.55;0.90;;;23.80;35.60;;;;;;5078685;28;20036;-55
2021/04/24 07:04:00;;;;;;;1.80;0.90;;;23.70;35.50;;;;;;5083308;28;20282;-55
2021/04/24 07:06:25;;;;;;;0.82;0.70;;;23.70;35.50;;;;;;5083979;28;20107;-53
2021/04/24 07:08:51;;;;;;;1.67;0.90;;;23.80;35.60;;;;;;5083054;28;20036;-57
2021/04/24 07:11:17;;;;;;;1.35;0.90;;;23.80;35.50;;;;;;5081989;28;20104;-56
2021/04/24 07:13:42;;;;;;;2.35;0.90;;;23.70;35.50;;;;;;5085064;28;20085;-57
2021/04/24 07:16:11;;;;;;;1.65;0.90;;;23.70;35.50;;;;;;5084638;28;20032;-55
2021/04/24 07:18:38;;;;;;;2.17;0.90;;;23.80;35.60;;;;;;5083144;28;20047;-52
2021/04/24 07:21:05;;;;;;;1.42;0.88;;;23.70;35.50;;;;;;5079762;28;20032;-54
2021/04/24 07:23:32;;;;;;;1.85;1.10;;;23.70;35.50;;;;;;5084597;28;20044;-55
2021/04/24 07:25:58;;;;;;;0.88;0.70;;;23.70;35.50;;;;;;5079311;28;20028;-52
2021/04/24 07:28:24;;;;;;;1.90;0.90;;;23.70;35.50;;;;;;5085051;28;20032;-52
2021/04/24 07:30:50;;;;;;;2.88;0.90;;;23.70;35.50;;;;;;5077474;28;20048;-56
2021/04/24 07:33:15;;;;;;;1.92;1.00;;;23.70;35.50;;;;;;5072277;28;20027;-57
2021/04/24 07:35:41;;;;;;;1.02;0.80;;;23.70;35.50;;;;;;5082272;28;20043;-57
2021/04/24 07:38:07;;;;;;;1.85;1.00;;;23.70;35.50;;;;;;5081454;28;20028;-51
2021/04/24 07:40:32;;;;;;;1.50;0.80;;;23.70;35.50;;;;;;5081060;28;20047;-51
2021/04/24 07:42:58;;;;;;;1.73;0.90;;;23.70;35.50;;;;;;5083847;28;20111;-51
2021/04/24 07:45:24;;;;;;;3.33;1.10;;;23.70;35.50;;;;;;5081147;28;20040;-54
2021/04/24 07:47:49;;;;;;;3.15;1.10;;;23.70;35.50;;;;;;5080344;28;20404;-55
2021/04/24 07:50:18;;;;;;;2.60;1.00;;;23.70;35.50;;;;;;5083536;28;20035;-53
2021/04/24 07:52:44;;;;;;;1.98;1.00;;;23.70;35.50;;;;;;5082679;28;20396;-56
2021/04/24 07:55:11;;;;;;;2.75;1.00;;;23.70;35.50;;;;;;5081713;28;20107;-55
2021/04/24 07:57:37;;;;;;;1.38;0.90;;;23.70;35.50;;;;;;5080075;28;20161;-54
2021/04/24 08:00:07;;;;;;;1.50;0.95;;;23.70;35.50;;;;;;5072832;28;20115;-56
2021/04/24 08:02:33;;;;;;;2.10;0.90;;;23.70;35.50;;;;;;5079772;28;20028;-51
2021/04/24 08:04:59;;;;;;;1.77;1.00;;;23.70;35.50;;;;;;5082245;28;20028;-52
2021/04/24 08:07:24;;;;;;;2.13;1.20;;;23.70;35.70;;;;;;5084448;28;20076;-52
2021/04/24 08:09:50;;;;;;;1.05;0.80;;;23.70;35.50;;;;;;5084163;28;20107;-57
2021/04/24 08:12:16;;;;;;;3.13;1.08;;;23.70;35.50;;;;;;5084577;28;20043;-56
2021/04/24 08:14:42;;;;;;;1.50;0.82;;;23.70;35.50;;;;;;5076296;28;20032;-58
2021/04/24 08:17:07;;;;;;;2.60;1.00;;;23.70;35.50;;;;;;5082487;28;20227;-54
2021/04/24 08:19:33;;;;;;;1.58;0.82;;;23.70;35.50;;;;;;5080459;28;20398;-56
2021/04/24 08:21:59;;;;;;;2.13;0.90;;;23.70;35.60;;;;;;5083860;28;20576;-55
2021/04/24 08:24:25;;;;;;;2.60;0.90;;;23.70;35.60;;;;;;5080255;28;20105;-54
2021/04/24 08:26:51;;;;;;;2.05;0.90;;;23.70;35.60;;;;;;5078244;28;20031;-54
2021/04/24 08:29:16;;;;;;;1.98;0.80;;;23.70;35.60;;;;;;5083529;28;20034;-53
2021/04/24 08:31:43;;;;;;;2.97;1.20;;;23.70;35.60;;;;;;5081216;28;20076;-52
2021/04/24 08:34:10;;;;;;;1.92;0.85;;;23.70;35.80;;;;;;5081693;28;20020;-55
2021/04/24 08:36:35;;;;;;;2.20;1.02;;;23.70;35.70;;;;;;5082441;28;20123;-57
2021/04/24 08:39:03;;;;;;;1.75;0.90;;;23.70;35.70;;;;;;5081845;28;20108;-53
2021/04/24 08:41:31;;;;;;;1.90;1.00;;;23.70;35.70;;;;;;5082732;28;20051;-57
2021/04/24 08:43:57;;;;;;;3.15;0.90;;;23.70;35.70;;;;;;5082094;28;20489;-53
2021/04/24 08:46:24;;;;;;;1.50;1.00;;;23.70;35.70;;;;;;5081883;28;20822;-56
2021/04/24 08:48:51;;;;;;;3.72;1.13;;;23.70;35.70;;;;;;5077294;28;20036;-56
2021/04/24 08:51:19;;;;;;;1.60;0.90;;;23.70;35.70;;;;;;5083365;28;20439;-54
2021/04/24 08:53:44;;;;;;;1.95;0.95;;;23.70;35.80;;;;;;5081611;28;20036;-52
2021/04/24 08:56:10;;;;;;;1.52;0.90;;;23.70;35.80;;;;;;5082341;28;20036;-55
2021/04/24 08:58:36;;;;;;;2.10;1.00;;;23.70;35.80;;;;;;5079884;28;20034;-53
2021/04/24 09:01:02;;;;;;;3.47;1.02;;;23.70;35.90;;;;;;5082258;28;20039;-53
2021/04/24 09:03:28;;;;;;;2.13;1.10;;;23.70;36.00;;;;;;5081528;28;20329;-56
2021/04/24 09:05:54;;;;;;;2.72;1.10;;;23.70;36.10;;;;;;5082443;28;20040;-55
2021/04/24 09:08:28;;;;;;;2.28;1.00;;;23.80;36.20;;;;;;5081946;28;20070;-56
2021/04/24 09:11:05;;;;;;;2.15;1.00;;;23.80;36.30;;;;;;5070123;28;20043;-56
2021/04/24 09:13:33;;;;;;;3.67;1.20;;;23.70;36.30;;;;;;5082091;28;20099;-57
2021/04/24 09:15:59;;;;;;;2.83;0.90;;;23.80;36.40;;;;;;5082409;28;20675;-57
2021/04/24 09:18:27;;;;;;;2.83;1.08;;;23.80;36.40;;;;;;5081133;28;20623;-55
2021/04/24 09:21:01;;;;;;;2.28;1.02;;;23.80;36.40;;;;;;5081845;28;20036;-55
2021/04/24 09:23:26;;;;;;;2.40;1.10;;;23.80;36.40;;;;;;5082608;28;20024;-54
2021/04/24 09:26:07;;;;;;;2.75;1.20;;;23.80;36.40;;;;;;5080061;28;20085;-53
2021/04/24 09:28:34;;;;;;;3.63;1.20;;;23.80;36.40;;;;;;5078540;28;20101;-57
2021/04/24 09:31:00;;;;;;;1.90;0.90;;;23.80;36.40;;;;;;5083932;28;20777;-53
2021/04/24 09:33:34;;;;;;;2.08;1.10;;;23.80;36.40;;;;;;5081877;28;20111;-55
2021/04/24 09:36:00;;;;;;;1.83;1.05;;;23.80;36.50;;;;;;5077207;28;20078;-54
2021/04/24 09:38:31;;;;;;;2.40;1.15;;;23.80;36.50;;;;;;5082425;28;20055;-52
2021/04/24 09:41:10;;;;;;;2.03;1.10;;;23.80;36.40;;;;;;5080554;28;20032;-53
2021/04/24 09:44:04;;;;;;;4.75;1.20;;;23.80;36.30;;;;;;5082123;28;20103;-50
2021/04/24 09:46:31;;;;;;;2.85;1.48;;;23.80;36.20;;;;;;5080569;28;20047;-55
2021/04/24 09:49:08;;;;;;;2.35;1.00;;;23.90;36.10;;;;;;5080856;28;20110;-60
2021/04/24 09:51:59;;;;;;;2.95;1.10;;;23.90;35.90;;;;;;5082701;28;20028;-56
2021/04/24 09:54:47;;;;;;;2.58;0.98;;;23.90;35.80;;;;;;5079921;28;20105;-55
2021/04/24 09:57:20;;;;;;;3.40;1.20;;;23.90;36.00;;;;;;5067373;28;20487;-57
2021/04/24 09:59:57;;;;;;;2.53;1.10;;;23.90;36.00;;;;;;5083967;28;20028;-53
2021/04/24 10:02:34;;;;;;;3.83;1.10;;;23.90;35.80;;;;;;5077765;28;20440;-57
2021/04/24 10:05:06;;;;;;;3.50;1.25;;;23.90;35.60;;;;;;5086675;28;20323;-58
2021/04/24 10:07:39;;;;;;;2.83;1.20;;;23.90;35.60;;;;;;5086637;28;20525;-58
2021/04/24 10:10:07;;;;;;;2.47;1.02;;;23.90;35.50;;;;;;5085621;28;20064;-58
2021/04/24 10:12:33;;;;;;;2.60;1.30;;;23.90;35.40;;;;;;5086382;28;20045;-54
2021/04/24 10:14:59;;;;;;;2.60;1.05;;;23.90;35.40;;;;;;5087318;28;20028;-58
2021/04/24 10:17:26;;;;;;;3.30;1.20;;;23.90;35.30;;;;;;5079101;28;20096;-58
2021/04/24 10:19:52;;;;;;;3.10;1.20;;;23.90;35.20;;;;;;5087425;28;20062;-55
2021/04/24 10:22:21;;;;;;;2.22;1.00;;;23.90;35.20;;;;;;5075366;28;20523;-56
2021/04/24 10:24:47;;;;;;;2.03;1.00;;;23.90;35.30;;;;;;5086734;28;20489;-55
2021/04/24 10:27:15;;;;;;;2.25;0.88;;;23.90;35.40;;;;;;5075924;28;20040;-56
2021/04/24 10:29:42;;;;;;;3.60;1.20;;;23.90;35.30;;;;;;5083396;28;20036;-57
2021/04/24 10:32:08;;;;;;;2.90;1.30;;;23.90;35.10;;;;;;5086440;28;20186;-56
2021/04/24 10:34:34;;;;;;;2.85;1.05;;;23.90;35.00;;;;;;5079653;28;20067;-55
2021/04/24 10:36:59;;;;;;;2.20;1.20;;;23.90;35.20;;;;;;5083050;28;20059;-55
2021/04/24 10:39:28;;;;;;;2.50;1.17;;;23.90;35.00;;;;;;5077519;28;20119;-56
2021/04/24 10:41:54;;;;;;;2.45;1.20;;;23.90;34.70;;;;;;5078081;28;20470;-55
2021/04/24 10:44:20;;;;;;;2.28;1.30;;;23.90;34.50;;;;;;5082201;28;20055;-55
2021/04/24 10:46:55;;;;;;;2.25;1.13;;;24.00;34.50;;;;;;5083662;28;20034;-58
2021/04/24 10:49:23;;;;;;;1.80;1.00;;;24.00;34.40;;;;;;5084455;28;20421;-52
2021/04/24 10:52:10;;;;;;;2.67;1.30;;;24.00;34.30;;;;;;5087671;28;20114;-56
2021/04/24 10:54:40;;;;;;;2.50;1.00;;;24.00;34.20;;;;;;5084095;28;20066;-58
2021/04/24 10:57:37;;;;;;;2.70;1.30;;;24.00;34.30;;;;;;5086513;28;20035;-57
2021/04/24 11:00:04;;;;;;;3.00;1.60;;;23.90;33.20;;;;;;5069686;28;20124;-58
2021/04/24 11:02:42;;;;;;;4.03;1.63;;;23.90;32.30;;;;;;5063929;28;20039;-57
2021/04/24 11:05:29;;;;;;;4.80;1.80;;;23.90;31.10;;;;;;5083864;28;20059;-57
2021/04/24 11:08:22;;;;;;;4.45;2.15;;;23.90;30.00;;;;;;5077903;28;20147;-58
2021/04/24 11:10:52;;;;;;;4.18;2.00;;;23.90;29.20;;;;;;5080193;28;20052;-53
2021/04/24 11:13:18;;;;;;;3.40;2.03;;;23.80;28.80;;;;;;5084648;28;20035;-58
2021/04/24 11:15:44;;;;;;;3.83;2.20;;;23.80;28.70;;;;;;5082087;28;20028;-57
2021/04/24 11:18:11;;;;;;;3.50;2.35;;;23.80;28.20;;;;;;5077770;28;20096;-54
2021/04/24 11:20:46;;;;;;;4.40;2.47;;;23.70;28.00;;;;;;5084293;28;20052;-58
2021/04/24 11:23:33;;;;;;;3.67;2.28;;;23.70;27.50;;;;;;5082959;28;20036;-58
2021/04/24 11:26:00;;;;;;;3.40;1.95;;;23.70;27.70;;;;;;5083374;28;20028;-54
2021/04/24 11:28:27;;;;;;;3.53;1.85;;;23.70;28.10;;;;;;5083342;28;20154;-55
2021/04/24 11:31:04;;;;;;;2.63;1.75;;;23.70;28.40;;;;;;5071831;28;20060;-57
2021/04/24 11:33:48;;;;;;;3.47;1.88;;;23.70;28.60;;;;;;5064842;28;20081;-53
2021/04/24 11:36:13;;;;;;;3.72;1.60;;;23.70;28.70;;;;;;5081347;28;20024;-57
2021/04/24 11:39:00;;;;;;;2.90;1.80;;;23.70;28.80;;;;;;5083392;28;20086;-56
2021/04/24 11:41:40;;;;;;;3.58;1.80;;;23.70;28.80;;;;;;5083240;28;20028;-51
2021/04/24 11:44:24;;;;;;;5.00;2.30;;;23.70;28.70;;;;;;5082313;28;20044;-57
2021/04/24 11:46:57;;;;;;;6.05;2.30;;;23.70;28.10;;;;;;5077945;28;20074;-57
2021/04/24 11:49:26;;;;;;;5.40;2.35;;;23.80;28.10;;;;;;5077980;28;20371;-56
2021/04/24 11:51:53;;;;;;;;;;;23.70;27.80;;;;;;5082372;28;20142;-56
2021/04/24 11:54:21;;;;;;;4.22;2.05;;;23.70;27.80;;;;;;5081910;28;19912;-57
2021/04/24 11:56:49;;;;;;;7.57;2.33;;;23.70;27.90;;;;;;5071473;28;20127;-55
2021/04/24 11:59:26;;;;;;;4.57;1.80;;;23.70;27.90;;;;;;5081782;28;20135;-57
2021/04/24 12:01:53;;;;;;;5.10;2.00;;;23.70;28.00;;;;;;5073405;28;20036;-56
2021/04/24 12:04:27;;;;;;;3.47;1.92;;;23.70;28.20;;;;;;5080008;28;20020;-56
2021/04/24 12:07:00;;;;;;;6.03;2.30;;;23.70;27.90;;;;;;5083654;28;20050;-57
2021/04/24 12:09:26;;;;;;;3.40;2.00;;;23.70;27.40;;;;;;5081645;28;20056;-57
2021/04/24 12:12:10;;;;;;;5.28;2.30;;;23.70;27.70;;;;;;5080827;28;20025;-53
2021/04/24 12:14:35;;;;;;;3.38;2.10;;;23.70;27.50;;;;;;5074460;28;20443;-58
2021/04/24 12:17:10;;;;;;;3.20;1.80;;;23.70;27.50;;;;;;5073305;28;20027;-59
2021/04/24 12:19:38;;;;;;;3.78;2.10;;;23.60;27.80;;;;;;5082479;28;20032;-57
2021/04/24 12:22:09;;;;;;;3.58;2.38;;;23.60;27.40;;;;;;5081510;28;20032;-58
2021/04/24 12:24:49;;;;;;;3.65;2.25;;;23.60;27.20;;;;;;5068342;28;20020;-56
2021/04/24 12:27:30;;;;;;;5.18;2.90;;;23.60;27.10;;;;;;5083103;28;20032;-56
2021/04/24 12:29:58;;;;;;;4.10;2.10;;;23.60;26.90;;;;;;5080962;28;20030;-57
2021/04/24 12:32:35;;;;;;;3.75;2.10;;;23.60;27.20;;;;;;5075841;28;20055;-58
2021/04/24 12:35:16;;;;;;;4.35;2.00;;;23.60;27.10;;;;;;5074010;28;20112;-56
2021/04/24 12:37:43;;;;;;;3.78;2.20;;;23.60;27.30;;;;;;5083341;28;20047;-55
2021/04/24 12:40:12;;;;;;;3.13;2.20;;;23.60;27.50;;;;;;5076217;28;20028;-56
2021/04/24 12:42:38;;;;;;;3.20;2.05;;;23.60;27.50;;;;;;5073173;28;20109;-59
2021/04/24 12:45:11;;;;;;;3.25;1.92;;;23.60;27.80;;;;;;5075971;28;20634;-57
2021/04/24 12:47:37;;;;;;;3.33;1.90;;;23.60;27.60;;;;;;5082431;28;20028;-58
2021/04/24 12:50:13;;;;;;;3.42;2.10;;;23.60;27.40;;;;;;5074247;28;20054;-54
2021/04/24 12:52:43;;;;;;;3.10;2.00;;;23.60;27.30;;;;;;5072640;28;20051;-58